sensor_id;sensor_type;location;lat;lon;timestamp;P1;durP1;ratioP1;P2;durP2;ratioP2
47021;SDS011;32779;52.264;6.154;2023-06-26T00:00:52;5.45;;;4.90;;
47021;SDS011;32779;52.264;6.154;2023-06-26T00:03:17;6.07;;;4.80;;
47021;SDS011;32779;52.264;6.154;2023-06-26T00:05:43;6.78;;;4.90;;
47021;SDS011;32779;52.264;6.154;2023-06-26T00:08:09;6.55;;;5.38;;
47021;SDS011;32779;52.264;6.154;2023-06-26T00:10:34;5.43;;;4.80;;
47021;SDS011;32779;52.264;6.154;2023-06-26T00:13:00;7.00;;;5.53;;
47021;SDS011;32779;52.264;6.154;2023-06-26T00:15:26;6.70;;;5.55;;
47021;SDS011;32779;52.264;6.154;2023-06-26T00:17:56;8.27;;;5.03;;
47021;SDS011;32779;52.264;6.154;2023-06-26T00:20:22;9.23;;;6.38;;
47021;SDS011;32779;52.264;6.154;2023-06-26T00:22:48;7.78;;;6.28;;
47021;SDS011;32779;52.264;6.154;2023-06-26T00:25:15;9.00;;;6.13;;
47021;SDS011;32779;52.264;6.154;2023-06-26T00:27:41;6.75;;;5.80;;
47021;SDS011;32779;52.264;6.154;2023-06-26T00:30:07;7.82;;;5.85;;
47021;SDS011;32779;52.264;6.154;2023-06-26T00:32:33;9.80;;;6.80;;
47021;SDS011;32779;52.264;6.154;2023-06-26T00:34:59;8.05;;;6.90;;
47021;SDS011;32779;52.264;6.154;2023-06-26T00:37:24;9.43;;;6.95;;
47021;SDS011;32779;52.264;6.154;2023-06-26T00:39:50;9.85;;;6.65;;
47021;SDS011;32779;52.264;6.154;2023-06-26T00:42:16;9.65;;;6.68;;
47021;SDS011;32779;52.264;6.154;2023-06-26T00:44:41;8.40;;;6.05;;
47021;SDS011;32779;52.264;6.154;2023-06-26T00:47:07;8.50;;;6.95;;
47021;SDS011;32779;52.264;6.154;2023-06-26T00:49:33;8.00;;;6.55;;
47021;SDS011;32779;52.264;6.154;2023-06-26T00:52:01;11.20;;;8.38;;
47021;SDS011;32779;52.264;6.154;2023-06-26T00:54:28;8.48;;;6.47;;
47021;SDS011;32779;52.264;6.154;2023-06-26T00:56:54;8.57;;;6.75;;
47021;SDS011;32779;52.264;6.154;2023-06-26T00:59:19;9.52;;;7.07;;
47021;SDS011;32779;52.264;6.154;2023-06-26T01:01:45;7.05;;;6.35;;
47021;SDS011;32779;52.264;6.154;2023-06-26T01:04:10;11.80;;;7.45;;
47021;SDS011;32779;52.264;6.154;2023-06-26T01:06:42;8.13;;;6.43;;
47021;SDS011;32779;52.264;6.154;2023-06-26T01:09:13;8.85;;;7.90;;
47021;SDS011;32779;52.264;6.154;2023-06-26T01:11:46;9.82;;;7.43;;
47021;SDS011;32779;52.264;6.154;2023-06-26T01:14:12;9.38;;;6.63;;
47021;SDS011;32779;52.264;6.154;2023-06-26T01:16:38;7.82;;;7.03;;
47021;SDS011;32779;52.264;6.154;2023-06-26T01:19:09;9.65;;;7.60;;
47021;SDS011;32779;52.264;6.154;2023-06-26T01:21:39;9.15;;;7.15;;
47021;SDS011;32779;52.264;6.154;2023-06-26T01:24:09;10.20;;;7.72;;
47021;SDS011;32779;52.264;6.154;2023-06-26T01:26:45;9.25;;;7.57;;
47021;SDS011;32779;52.264;6.154;2023-06-26T01:29:13;10.40;;;7.45;;
47021;SDS011;32779;52.264;6.154;2023-06-26T01:31:41;11.68;;;7.10;;
47021;SDS011;32779;52.264;6.154;2023-06-26T01:34:08;8.85;;;7.95;;
47021;SDS011;32779;52.264;6.154;2023-06-26T01:36:34;9.82;;;7.90;;
47021;SDS011;32779;52.264;6.154;2023-06-26T01:39:02;9.82;;;8.45;;
47021;SDS011;32779;52.264;6.154;2023-06-26T01:41:27;11.07;;;8.38;;
47021;SDS011;32779;52.264;6.154;2023-06-26T01:49:25;9.27;;;7.45;;
47021;SDS011;32779;52.264;6.154;2023-06-26T01:52:08;8.85;;;7.90;;
47021;SDS011;32779;52.264;6.154;2023-06-26T01:54:58;9.73;;;7.43;;
47021;SDS011;32779;52.264;6.154;2023-06-26T01:57:41;11.20;;;8.50;;
47021;SDS011;32779;52.264;6.154;2023-06-26T02:00:09;9.55;;;7.15;;
47021;SDS011;32779;52.264;6.154;2023-06-26T02:02:36;9.55;;;7.03;;
47021;SDS011;32779;52.264;6.154;2023-06-26T02:05:02;8.10;;;6.85;;
47021;SDS011;32779;52.264;6.154;2023-06-26T02:07:27;8.23;;;7.05;;
47021;SDS011;32779;52.264;6.154;2023-06-26T02:09:53;11.88;;;7.43;;
47021;SDS011;32779;52.264;6.154;2023-06-26T02:12:19;9.82;;;7.43;;
47021;SDS011;32779;52.264;6.154;2023-06-26T02:14:45;8.88;;;6.80;;
47021;SDS011;32779;52.264;6.154;2023-06-26T02:17:11;7.80;;;6.95;;
47021;SDS011;32779;52.264;6.154;2023-06-26T02:19:36;7.50;;;6.70;;
47021;SDS011;32779;52.264;6.154;2023-06-26T02:22:10;9.68;;;7.20;;
47021;SDS011;32779;52.264;6.154;2023-06-26T02:24:35;8.65;;;6.88;;
47021;SDS011;32779;52.264;6.154;2023-06-26T02:27:01;9.73;;;6.55;;
47021;SDS011;32779;52.264;6.154;2023-06-26T02:29:26;9.18;;;7.35;;
47021;SDS011;32779;52.264;6.154;2023-06-26T02:31:53;9.73;;;7.22;;
47021;SDS011;32779;52.264;6.154;2023-06-26T02:34:18;8.75;;;7.07;;
47021;SDS011;32779;52.264;6.154;2023-06-26T02:36:44;8.68;;;7.05;;
47021;SDS011;32779;52.264;6.154;2023-06-26T02:39:10;8.43;;;6.72;;
47021;SDS011;32779;52.264;6.154;2023-06-26T02:41:36;8.43;;;6.45;;
47021;SDS011;32779;52.264;6.154;2023-06-26T02:44:02;8.43;;;6.53;;
47021;SDS011;32779;52.264;6.154;2023-06-26T02:46:27;11.02;;;7.40;;
47021;SDS011;32779;52.264;6.154;2023-06-26T02:48:53;8.98;;;7.40;;
47021;SDS011;32779;52.264;6.154;2023-06-26T02:51:19;9.23;;;7.43;;
47021;SDS011;32779;52.264;6.154;2023-06-26T02:53:44;8.55;;;7.65;;
47021;SDS011;32779;52.264;6.154;2023-06-26T02:56:10;13.25;;;7.70;;
47021;SDS011;32779;52.264;6.154;2023-06-26T02:58:35;9.07;;;7.97;;
47021;SDS011;32779;52.264;6.154;2023-06-26T03:01:03;9.63;;;8.05;;
47021;SDS011;32779;52.264;6.154;2023-06-26T03:03:29;9.90;;;8.05;;
47021;SDS011;32779;52.264;6.154;2023-06-26T03:05:54;10.35;;;9.07;;
47021;SDS011;32779;52.264;6.154;2023-06-26T03:08:20;12.63;;;8.10;;
47021;SDS011;32779;52.264;6.154;2023-06-26T03:10:46;8.65;;;7.75;;
47021;SDS011;32779;52.264;6.154;2023-06-26T03:13:11;11.20;;;8.00;;
47021;SDS011;32779;52.264;6.154;2023-06-26T03:15:37;10.13;;;8.40;;
47021;SDS011;32779;52.264;6.154;2023-06-26T03:18:02;10.07;;;7.60;;
47021;SDS011;32779;52.264;6.154;2023-06-26T03:20:28;9.27;;;7.43;;
47021;SDS011;32779;52.264;6.154;2023-06-26T03:22:54;9.15;;;7.20;;
47021;SDS011;32779;52.264;6.154;2023-06-26T03:25:19;9.82;;;6.95;;
47021;SDS011;32779;52.264;6.154;2023-06-26T03:27:45;8.15;;;6.10;;
47021;SDS011;32779;52.264;6.154;2023-06-26T03:30:11;6.90;;;6.15;;
47021;SDS011;32779;52.264;6.154;2023-06-26T03:32:36;9.38;;;6.32;;
47021;SDS011;32779;52.264;6.154;2023-06-26T03:35:02;11.75;;;6.28;;
47021;SDS011;32779;52.264;6.154;2023-06-26T03:37:28;9.82;;;6.07;;
47021;SDS011;32779;52.264;6.154;2023-06-26T03:39:54;7.10;;;5.60;;
47021;SDS011;32779;52.264;6.154;2023-06-26T03:42:19;9.45;;;6.15;;
47021;SDS011;32779;52.264;6.154;2023-06-26T03:44:45;7.75;;;4.70;;
47021;SDS011;32779;52.264;6.154;2023-06-26T03:47:10;7.75;;;5.35;;
47021;SDS011;32779;52.264;6.154;2023-06-26T03:49:36;7.05;;;5.05;;
47021;SDS011;32779;52.264;6.154;2023-06-26T03:52:02;9.00;;;5.32;;
47021;SDS011;32779;52.264;6.154;2023-06-26T03:54:27;8.60;;;4.88;;
47021;SDS011;32779;52.264;6.154;2023-06-26T03:56:53;9.90;;;5.65;;
47021;SDS011;32779;52.264;6.154;2023-06-26T03:59:19;6.97;;;4.93;;
47021;SDS011;32779;52.264;6.154;2023-06-26T04:01:44;9.25;;;5.25;;
47021;SDS011;32779;52.264;6.154;2023-06-26T04:04:12;7.10;;;4.80;;
47021;SDS011;32779;52.264;6.154;2023-06-26T04:06:38;9.30;;;4.88;;
47021;SDS011;32779;52.264;6.154;2023-06-26T04:09:04;6.43;;;4.20;;
47021;SDS011;32779;52.264;6.154;2023-06-26T04:11:30;8.80;;;4.60;;
47021;SDS011;32779;52.264;6.154;2023-06-26T04:13:56;9.52;;;4.65;;
47021;SDS011;32779;52.264;6.154;2023-06-26T04:16:21;8.38;;;4.85;;
47021;SDS011;32779;52.264;6.154;2023-06-26T04:18:51;12.55;;;4.82;;
47021;SDS011;32779;52.264;6.154;2023-06-26T04:21:17;11.25;;;4.82;;
47021;SDS011;32779;52.264;6.154;2023-06-26T04:23:43;8.25;;;4.70;;
47021;SDS011;32779;52.264;6.154;2023-06-26T04:26:08;11.88;;;4.57;;
47021;SDS011;32779;52.264;6.154;2023-06-26T04:28:38;7.63;;;4.40;;
47021;SDS011;32779;52.264;6.154;2023-06-26T04:31:03;7.85;;;4.22;;
47021;SDS011;32779;52.264;6.154;2023-06-26T04:33:29;8.15;;;4.60;;
47021;SDS011;32779;52.264;6.154;2023-06-26T04:35:55;8.20;;;4.45;;
47021;SDS011;32779;52.264;6.154;2023-06-26T04:38:21;11.40;;;4.63;;
47021;SDS011;32779;52.264;6.154;2023-06-26T04:40:47;9.50;;;4.50;;
47021;SDS011;32779;52.264;6.154;2023-06-26T04:43:13;14.15;;;4.65;;
47021;SDS011;32779;52.264;6.154;2023-06-26T04:45:39;10.27;;;4.75;;
47021;SDS011;32779;52.264;6.154;2023-06-26T04:48:04;16.08;;;5.18;;
47021;SDS011;32779;52.264;6.154;2023-06-26T04:50:31;7.25;;;4.25;;
47021;SDS011;32779;52.264;6.154;2023-06-26T04:52:56;12.00;;;5.65;;
47021;SDS011;32779;52.264;6.154;2023-06-26T04:55:23;12.15;;;4.88;;
47021;SDS011;32779;52.264;6.154;2023-06-26T04:57:49;12.75;;;5.22;;
47021;SDS011;32779;52.264;6.154;2023-06-26T05:00:15;10.38;;;4.40;;
47021;SDS011;32779;52.264;6.154;2023-06-26T05:02:41;9.75;;;4.70;;
47021;SDS011;32779;52.264;6.154;2023-06-26T05:05:07;16.17;;;4.13;;
47021;SDS011;32779;52.264;6.154;2023-06-26T05:07:33;10.95;;;4.80;;
47021;SDS011;32779;52.264;6.154;2023-06-26T05:09:58;10.85;;;4.70;;
47021;SDS011;32779;52.264;6.154;2023-06-26T05:12:24;15.23;;;4.93;;
47021;SDS011;32779;52.264;6.154;2023-06-26T05:14:50;10.98;;;4.63;;
47021;SDS011;32779;52.264;6.154;2023-06-26T05:17:15;11.20;;;4.60;;
47021;SDS011;32779;52.264;6.154;2023-06-26T05:19:41;13.75;;;5.05;;
47021;SDS011;32779;52.264;6.154;2023-06-26T05:22:07;17.83;;;4.75;;
47021;SDS011;32779;52.264;6.154;2023-06-26T05:24:34;16.35;;;4.88;;
47021;SDS011;32779;52.264;6.154;2023-06-26T05:27:00;12.98;;;4.82;;
47021;SDS011;32779;52.264;6.154;2023-06-26T05:29:27;11.93;;;4.30;;
47021;SDS011;32779;52.264;6.154;2023-06-26T05:31:54;9.85;;;4.53;;
47021;SDS011;32779;52.264;6.154;2023-06-26T05:34:22;16.38;;;4.93;;
47021;SDS011;32779;52.264;6.154;2023-06-26T05:36:50;16.75;;;5.32;;
47021;SDS011;32779;52.264;6.154;2023-06-26T05:39:16;11.32;;;4.65;;
47021;SDS011;32779;52.264;6.154;2023-06-26T05:41:43;16.92;;;5.55;;
47021;SDS011;32779;52.264;6.154;2023-06-26T05:44:09;21.45;;;5.88;;
47021;SDS011;32779;52.264;6.154;2023-06-26T05:46:35;16.20;;;5.80;;
47021;SDS011;32779;52.264;6.154;2023-06-26T05:49:01;12.93;;;4.88;;
47021;SDS011;32779;52.264;6.154;2023-06-26T05:51:27;18.08;;;4.80;;
47021;SDS011;32779;52.264;6.154;2023-06-26T05:53:54;11.38;;;4.45;;
47021;SDS011;32779;52.264;6.154;2023-06-26T05:56:20;18.27;;;5.13;;
47021;SDS011;32779;52.264;6.154;2023-06-26T05:58:46;14.38;;;4.88;;
47021;SDS011;32779;52.264;6.154;2023-06-26T06:01:12;15.10;;;4.95;;
47021;SDS011;32779;52.264;6.154;2023-06-26T06:03:38;14.98;;;4.65;;
47021;SDS011;32779;52.264;6.154;2023-06-26T06:06:04;17.45;;;4.63;;
47021;SDS011;32779;52.264;6.154;2023-06-26T06:08:30;12.10;;;4.63;;
47021;SDS011;32779;52.264;6.154;2023-06-26T06:10:56;10.18;;;4.18;;
47021;SDS011;32779;52.264;6.154;2023-06-26T06:13:21;10.82;;;4.07;;
47021;SDS011;32779;52.264;6.154;2023-06-26T06:15:47;9.70;;;4.00;;
47021;SDS011;32779;52.264;6.154;2023-06-26T06:18:13;9.57;;;3.97;;
47021;SDS011;32779;52.264;6.154;2023-06-26T06:20:38;9.35;;;3.50;;
47021;SDS011;32779;52.264;6.154;2023-06-26T06:23:04;6.90;;;3.08;;
47021;SDS011;32779;52.264;6.154;2023-06-26T06:25:29;5.07;;;2.35;;
47021;SDS011;32779;52.264;6.154;2023-06-26T06:27:55;7.50;;;2.53;;
47021;SDS011;32779;52.264;6.154;2023-06-26T06:30:21;6.38;;;2.88;;
47021;SDS011;32779;52.264;6.154;2023-06-26T06:32:46;6.90;;;2.22;;
47021;SDS011;32779;52.264;6.154;2023-06-26T06:35:15;5.43;;;2.40;;
47021;SDS011;32779;52.264;6.154;2023-06-26T06:37:42;3.85;;;2.00;;
47021;SDS011;32779;52.264;6.154;2023-06-26T06:40:11;4.82;;;2.10;;
47021;SDS011;32779;52.264;6.154;2023-06-26T06:42:36;3.60;;;1.95;;
47021;SDS011;32779;52.264;6.154;2023-06-26T06:45:03;3.25;;;2.00;;
47021;SDS011;32779;52.264;6.154;2023-06-26T06:47:29;4.30;;;1.90;;
47021;SDS011;32779;52.264;6.154;2023-06-26T06:49:55;3.58;;;1.73;;
47021;SDS011;32779;52.264;6.154;2023-06-26T06:52:21;4.10;;;2.00;;
47021;SDS011;32779;52.264;6.154;2023-06-26T06:54:57;6.43;;;1.85;;
47021;SDS011;32779;52.264;6.154;2023-06-26T06:57:30;5.03;;;1.80;;
47021;SDS011;32779;52.264;6.154;2023-06-26T06:59:55;3.70;;;1.40;;
47021;SDS011;32779;52.264;6.154;2023-06-26T07:02:21;3.40;;;1.60;;
47021;SDS011;32779;52.264;6.154;2023-06-26T07:04:47;4.03;;;1.70;;
47021;SDS011;32779;52.264;6.154;2023-06-26T07:07:12;6.07;;;1.70;;
47021;SDS011;32779;52.264;6.154;2023-06-26T07:09:41;3.13;;;1.50;;
47021;SDS011;32779;52.264;6.154;2023-06-26T07:12:09;4.25;;;1.48;;
47021;SDS011;32779;52.264;6.154;2023-06-26T07:14:35;5.90;;;1.40;;
47021;SDS011;32779;52.264;6.154;2023-06-26T07:17:00;4.57;;;1.67;;
47021;SDS011;32779;52.264;6.154;2023-06-26T07:19:26;4.00;;;1.65;;
47021;SDS011;32779;52.264;6.154;2023-06-26T07:21:52;4.50;;;2.15;;
47021;SDS011;32779;52.264;6.154;2023-06-26T07:24:17;3.90;;;1.80;;
47021;SDS011;32779;52.264;6.154;2023-06-26T07:26:43;4.57;;;2.00;;
47021;SDS011;32779;52.264;6.154;2023-06-26T07:29:09;3.38;;;1.50;;
47021;SDS011;32779;52.264;6.154;2023-06-26T07:31:34;5.03;;;1.80;;
47021;SDS011;32779;52.264;6.154;2023-06-26T07:34:03;3.20;;;1.60;;
47021;SDS011;32779;52.264;6.154;2023-06-26T07:36:28;4.43;;;1.60;;
47021;SDS011;32779;52.264;6.154;2023-06-26T07:38:54;4.70;;;1.70;;
47021;SDS011;32779;52.264;6.154;2023-06-26T07:41:19;4.78;;;1.80;;
47021;SDS011;32779;52.264;6.154;2023-06-26T07:43:45;5.13;;;1.60;;
47021;SDS011;32779;52.264;6.154;2023-06-26T07:46:10;3.22;;;1.70;;
47021;SDS011;32779;52.264;6.154;2023-06-26T07:48:36;5.45;;;1.90;;
47021;SDS011;32779;52.264;6.154;2023-06-26T07:51:02;4.35;;;1.65;;
47021;SDS011;32779;52.264;6.154;2023-06-26T07:53:27;3.53;;;1.80;;
47021;SDS011;32779;52.264;6.154;2023-06-26T07:55:53;5.22;;;2.38;;
47021;SDS011;32779;52.264;6.154;2023-06-26T07:58:19;3.38;;;2.08;;
47021;SDS011;32779;52.264;6.154;2023-06-26T08:00:44;4.47;;;1.92;;
47021;SDS011;32779;52.264;6.154;2023-06-26T08:03:10;5.00;;;2.00;;
47021;SDS011;32779;52.264;6.154;2023-06-26T08:05:35;3.80;;;1.98;;
47021;SDS011;32779;52.264;6.154;2023-06-26T08:08:01;7.40;;;2.08;;
47021;SDS011;32779;52.264;6.154;2023-06-26T08:10:28;6.55;;;1.80;;
47021;SDS011;32779;52.264;6.154;2023-06-26T08:12:53;3.80;;;2.08;;
47021;SDS011;32779;52.264;6.154;2023-06-26T08:15:20;5.57;;;1.85;;
47021;SDS011;32779;52.264;6.154;2023-06-26T08:17:46;4.57;;;1.77;;
47021;SDS011;32779;52.264;6.154;2023-06-26T08:20:12;4.43;;;1.60;;
47021;SDS011;32779;52.264;6.154;2023-06-26T08:22:37;3.38;;;1.70;;
47021;SDS011;32779;52.264;6.154;2023-06-26T08:25:03;4.65;;;1.80;;
47021;SDS011;32779;52.264;6.154;2023-06-26T08:27:30;5.28;;;1.52;;
47021;SDS011;32779;52.264;6.154;2023-06-26T08:29:56;3.95;;;1.63;;
47021;SDS011;32779;52.264;6.154;2023-06-26T08:32:22;3.42;;;1.83;;
47021;SDS011;32779;52.264;6.154;2023-06-26T08:34:48;5.22;;;1.85;;
47021;SDS011;32779;52.264;6.154;2023-06-26T08:37:13;7.20;;;1.85;;
47021;SDS011;32779;52.264;6.154;2023-06-26T08:39:39;4.47;;;1.70;;
47021;SDS011;32779;52.264;6.154;2023-06-26T08:42:04;3.40;;;1.60;;
47021;SDS011;32779;52.264;6.154;2023-06-26T08:44:33;4.20;;;1.60;;
47021;SDS011;32779;52.264;6.154;2023-06-26T08:46:59;6.50;;;1.70;;
47021;SDS011;32779;52.264;6.154;2023-06-26T08:49:28;5.63;;;2.15;;
47021;SDS011;32779;52.264;6.154;2023-06-26T08:52:02;4.60;;;2.03;;
47021;SDS011;32779;52.264;6.154;2023-06-26T08:54:40;3.78;;;1.90;;
47021;SDS011;32779;52.264;6.154;2023-06-26T08:57:10;3.85;;;1.92;;
47021;SDS011;32779;52.264;6.154;2023-06-26T08:59:36;5.65;;;2.10;;
47021;SDS011;32779;52.264;6.154;2023-06-26T09:02:02;4.30;;;2.22;;
47021;SDS011;32779;52.264;6.154;2023-06-26T09:04:28;6.00;;;2.03;;
47021;SDS011;32779;52.264;6.154;2023-06-26T09:06:53;4.95;;;2.00;;
47021;SDS011;32779;52.264;6.154;2023-06-26T09:09:19;5.72;;;1.80;;
47021;SDS011;32779;52.264;6.154;2023-06-26T09:11:45;4.00;;;1.70;;
47021;SDS011;32779;52.264;6.154;2023-06-26T09:14:11;4.03;;;2.08;;
47021;SDS011;32779;52.264;6.154;2023-06-26T09:16:41;3.42;;;1.60;;
47021;SDS011;32779;52.264;6.154;2023-06-26T09:19:12;5.43;;;1.80;;
47021;SDS011;32779;52.264;6.154;2023-06-26T09:21:39;5.32;;;2.20;;
47021;SDS011;32779;52.264;6.154;2023-06-26T09:24:06;5.15;;;2.15;;
47021;SDS011;32779;52.264;6.154;2023-06-26T09:26:34;2.67;;;1.60;;
47021;SDS011;32779;52.264;6.154;2023-06-26T09:29:04;7.05;;;2.00;;
47021;SDS011;32779;52.264;6.154;2023-06-26T09:31:32;4.00;;;1.60;;
47021;SDS011;32779;52.264;6.154;2023-06-26T09:34:08;4.22;;;1.60;;
47021;SDS011;32779;52.264;6.154;2023-06-26T09:36:34;2.17;;;1.50;;
47021;SDS011;32779;52.264;6.154;2023-06-26T09:39:04;5.07;;;1.63;;
47021;SDS011;32779;52.264;6.154;2023-06-26T09:41:35;2.40;;;1.33;;
47021;SDS011;32779;52.264;6.154;2023-06-26T09:44:04;4.78;;;1.42;;
47021;SDS011;32779;52.264;6.154;2023-06-26T09:46:32;4.07;;;1.48;;
47021;SDS011;32779;52.264;6.154;2023-06-26T09:51:24;4.22;;;1.38;;
47021;SDS011;32779;52.264;6.154;2023-06-26T09:53:50;4.30;;;1.33;;
47021;SDS011;32779;52.264;6.154;2023-06-26T09:56:16;3.63;;;1.60;;
47021;SDS011;32779;52.264;6.154;2023-06-26T09:58:42;3.10;;;1.10;;
47021;SDS011;32779;52.264;6.154;2023-06-26T10:01:09;3.08;;;1.10;;
47021;SDS011;32779;52.264;6.154;2023-06-26T10:03:35;5.25;;;1.13;;
47021;SDS011;32779;52.264;6.154;2023-06-26T10:06:01;1.92;;;0.82;;
47021;SDS011;32779;52.264;6.154;2023-06-26T10:08:28;2.85;;;1.10;;
47021;SDS011;32779;52.264;6.154;2023-06-26T10:10:54;3.05;;;1.00;;
47021;SDS011;32779;52.264;6.154;2023-06-26T10:13:22;3.22;;;0.90;;
47021;SDS011;32779;52.264;6.154;2023-06-26T10:15:53;6.93;;;1.02;;
47021;SDS011;32779;52.264;6.154;2023-06-26T10:18:20;2.35;;;0.63;;
47021;SDS011;32779;52.264;6.154;2023-06-26T10:20:48;3.97;;;0.70;;
47021;SDS011;32779;52.264;6.154;2023-06-26T10:23:16;4.80;;;1.13;;
47021;SDS011;32779;52.264;6.154;2023-06-26T10:25:44;3.45;;;0.90;;
47021;SDS011;32779;52.264;6.154;2023-06-26T10:28:13;3.78;;;1.00;;
47021;SDS011;32779;52.264;6.154;2023-06-26T10:30:41;3.25;;;1.20;;
47021;SDS011;32779;52.264;6.154;2023-06-26T10:33:08;8.07;;;1.33;;
47021;SDS011;32779;52.264;6.154;2023-06-26T10:35:43;9.85;;;1.10;;
47021;SDS011;32779;52.264;6.154;2023-06-26T10:38:09;6.25;;;1.17;;
47021;SDS011;32779;52.264;6.154;2023-06-26T10:43:11;3.03;;;1.25;;
47021;SDS011;32779;52.264;6.154;2023-06-26T10:48:12;4.43;;;1.13;;
47021;SDS011;32779;52.264;6.154;2023-06-26T10:50:40;2.08;;;0.70;;
47021;SDS011;32779;52.264;6.154;2023-06-26T10:56:00;4.35;;;1.20;;
47021;SDS011;32779;52.264;6.154;2023-06-26T11:01:17;2.05;;;1.10;;
47021;SDS011;32779;52.264;6.154;2023-06-26T11:03:49;5.68;;;1.30;;
47021;SDS011;32779;52.264;6.154;2023-06-26T11:06:21;6.13;;;1.00;;
47021;SDS011;32779;52.264;6.154;2023-06-26T11:09:08;4.47;;;1.10;;
47021;SDS011;32779;52.264;6.154;2023-06-26T11:14:17;4.70;;;1.60;;
47021;SDS011;32779;52.264;6.154;2023-06-26T11:16:44;2.83;;;1.20;;
47021;SDS011;32779;52.264;6.154;2023-06-26T11:19:10;5.60;;;1.30;;
47021;SDS011;32779;52.264;6.154;2023-06-26T11:21:39;3.17;;;1.38;;
47021;SDS011;32779;52.264;6.154;2023-06-26T11:24:09;4.72;;;1.70;;
47021;SDS011;32779;52.264;6.154;2023-06-26T11:26:39;6.15;;;1.45;;
47021;SDS011;32779;52.264;6.154;2023-06-26T11:29:05;5.10;;;1.20;;
47021;SDS011;32779;52.264;6.154;2023-06-26T11:31:32;4.05;;;1.23;;
47021;SDS011;32779;52.264;6.154;2023-06-26T11:34:03;3.75;;;1.30;;
47021;SDS011;32779;52.264;6.154;2023-06-26T11:36:31;4.80;;;1.50;;
47021;SDS011;32779;52.264;6.154;2023-06-26T11:38:57;4.63;;;1.15;;
47021;SDS011;32779;52.264;6.154;2023-06-26T11:41:26;1.98;;;0.90;;
47021;SDS011;32779;52.264;6.154;2023-06-26T11:43:53;5.88;;;1.15;;
47021;SDS011;32779;52.264;6.154;2023-06-26T11:46:20;4.40;;;1.10;;
47021;SDS011;32779;52.264;6.154;2023-06-26T11:48:47;4.60;;;0.90;;
47021;SDS011;32779;52.264;6.154;2023-06-26T11:51:13;2.50;;;0.93;;
47021;SDS011;32779;52.264;6.154;2023-06-26T11:53:43;5.13;;;0.80;;
47021;SDS011;32779;52.264;6.154;2023-06-26T11:56:12;2.53;;;0.93;;
47021;SDS011;32779;52.264;6.154;2023-06-26T12:03:58;5.15;;;1.00;;
47021;SDS011;32779;52.264;6.154;2023-06-26T12:06:26;6.80;;;1.10;;
47021;SDS011;32779;52.264;6.154;2023-06-26T12:08:53;3.30;;;1.00;;
47021;SDS011;32779;52.264;6.154;2023-06-26T12:11:20;4.25;;;1.20;;
47021;SDS011;32779;52.264;6.154;2023-06-26T12:13:47;4.35;;;0.88;;
47021;SDS011;32779;52.264;6.154;2023-06-26T12:16:14;2.65;;;0.75;;
47021;SDS011;32779;52.264;6.154;2023-06-26T12:18:39;6.75;;;0.75;;
47021;SDS011;32779;52.264;6.154;2023-06-26T12:21:05;3.50;;;0.70;;
47021;SDS011;32779;52.264;6.154;2023-06-26T12:23:40;1.63;;;1.05;;
47021;SDS011;32779;52.264;6.154;2023-06-26T12:26:16;3.03;;;0.85;;
47021;SDS011;32779;52.264;6.154;2023-06-26T12:28:45;4.90;;;1.10;;
47021;SDS011;32779;52.264;6.154;2023-06-26T12:31:14;1.90;;;0.85;;
47021;SDS011;32779;52.264;6.154;2023-06-26T12:33:42;7.57;;;1.08;;
47021;SDS011;32779;52.264;6.154;2023-06-26T12:36:13;2.33;;;0.90;;
47021;SDS011;32779;52.264;6.154;2023-06-26T12:38:42;6.38;;;0.90;;
47021;SDS011;32779;52.264;6.154;2023-06-26T12:41:14;5.43;;;0.85;;
47021;SDS011;32779;52.264;6.154;2023-06-26T12:43:40;7.35;;;0.90;;
47021;SDS011;32779;52.264;6.154;2023-06-26T12:46:07;3.72;;;1.27;;
47021;SDS011;32779;52.264;6.154;2023-06-26T12:48:39;5.05;;;0.80;;
47021;SDS011;32779;52.264;6.154;2023-06-26T12:51:12;5.32;;;1.13;;
47021;SDS011;32779;52.264;6.154;2023-06-26T12:53:51;3.15;;;0.80;;
47021;SDS011;32779;52.264;6.154;2023-06-26T12:56:17;2.72;;;0.90;;
47021;SDS011;32779;52.264;6.154;2023-06-26T12:58:43;3.67;;;1.00;;
47021;SDS011;32779;52.264;6.154;2023-06-26T13:01:08;5.47;;;1.10;;
47021;SDS011;32779;52.264;6.154;2023-06-26T13:03:39;3.13;;;0.82;;
47021;SDS011;32779;52.264;6.154;2023-06-26T13:06:05;3.85;;;1.02;;
47021;SDS011;32779;52.264;6.154;2023-06-26T13:08:31;4.05;;;1.10;;
47021;SDS011;32779;52.264;6.154;2023-06-26T13:10:58;4.80;;;1.05;;
47021;SDS011;32779;52.264;6.154;2023-06-26T13:13:23;2.15;;;0.85;;
47021;SDS011;32779;52.264;6.154;2023-06-26T13:15:49;5.43;;;0.82;;
47021;SDS011;32779;52.264;6.154;2023-06-26T13:18:15;2.28;;;0.80;;
47021;SDS011;32779;52.264;6.154;2023-06-26T13:20:40;7.63;;;0.90;;
47021;SDS011;32779;52.264;6.154;2023-06-26T13:23:06;4.93;;;1.00;;
47021;SDS011;32779;52.264;6.154;2023-06-26T13:25:32;8.82;;;1.00;;
47021;SDS011;32779;52.264;6.154;2023-06-26T13:27:58;2.88;;;1.05;;
47021;SDS011;32779;52.264;6.154;2023-06-26T13:30:24;2.50;;;0.80;;
47021;SDS011;32779;52.264;6.154;2023-06-26T13:32:49;4.72;;;1.20;;
47021;SDS011;32779;52.264;6.154;2023-06-26T13:35:15;5.18;;;1.15;;
47021;SDS011;32779;52.264;6.154;2023-06-26T13:37:41;9.82;;;1.20;;
47021;SDS011;32779;52.264;6.154;2023-06-26T13:40:08;5.97;;;1.15;;
47021;SDS011;32779;52.264;6.154;2023-06-26T13:42:35;3.33;;;1.10;;
47021;SDS011;32779;52.264;6.154;2023-06-26T13:45:04;5.47;;;0.90;;
47021;SDS011;32779;52.264;6.154;2023-06-26T13:47:30;6.50;;;1.00;;
47021;SDS011;32779;52.264;6.154;2023-06-26T13:49:56;5.72;;;0.90;;
47021;SDS011;32779;52.264;6.154;2023-06-26T13:52:22;4.63;;;0.93;;
47021;SDS011;32779;52.264;6.154;2023-06-26T13:54:48;7.40;;;1.00;;
47021;SDS011;32779;52.264;6.154;2023-06-26T13:57:14;2.10;;;0.80;;
47021;SDS011;32779;52.264;6.154;2023-06-26T13:59:40;5.82;;;1.10;;
47021;SDS011;32779;52.264;6.154;2023-06-26T14:02:06;3.80;;;1.00;;
47021;SDS011;32779;52.264;6.154;2023-06-26T14:04:32;4.22;;;1.13;;
47021;SDS011;32779;52.264;6.154;2023-06-26T14:06:58;4.18;;;0.80;;
47021;SDS011;32779;52.264;6.154;2023-06-26T14:09:24;5.50;;;0.88;;
47021;SDS011;32779;52.264;6.154;2023-06-26T14:11:49;7.00;;;1.20;;
47021;SDS011;32779;52.264;6.154;2023-06-26T14:14:15;2.38;;;0.65;;
47021;SDS011;32779;52.264;6.154;2023-06-26T14:16:40;2.05;;;0.80;;
47021;SDS011;32779;52.264;6.154;2023-06-26T14:19:06;3.50;;;1.00;;
47021;SDS011;32779;52.264;6.154;2023-06-26T14:21:32;2.67;;;0.80;;
47021;SDS011;32779;52.264;6.154;2023-06-26T14:23:58;4.18;;;1.33;;
47021;SDS011;32779;52.264;6.154;2023-06-26T14:26:24;2.63;;;0.98;;
47021;SDS011;32779;52.264;6.154;2023-06-26T14:28:49;2.55;;;0.93;;
47021;SDS011;32779;52.264;6.154;2023-06-26T14:31:15;3.00;;;0.90;;
47021;SDS011;32779;52.264;6.154;2023-06-26T14:33:41;4.95;;;1.23;;
47021;SDS011;32779;52.264;6.154;2023-06-26T14:36:07;6.60;;;1.42;;
47021;SDS011;32779;52.264;6.154;2023-06-26T14:38:32;5.00;;;0.80;;
47021;SDS011;32779;52.264;6.154;2023-06-26T14:40:58;5.82;;;0.80;;
47021;SDS011;32779;52.264;6.154;2023-06-26T14:43:24;3.55;;;1.10;;
47021;SDS011;32779;52.264;6.154;2023-06-26T14:45:49;2.60;;;1.05;;
47021;SDS011;32779;52.264;6.154;2023-06-26T14:48:15;5.78;;;1.00;;
47021;SDS011;32779;52.264;6.154;2023-06-26T14:50:41;4.75;;;1.13;;
47021;SDS011;32779;52.264;6.154;2023-06-26T14:53:06;4.80;;;1.00;;
47021;SDS011;32779;52.264;6.154;2023-06-26T14:55:32;3.20;;;0.85;;
47021;SDS011;32779;52.264;6.154;2023-06-26T14:57:58;3.25;;;0.90;;
47021;SDS011;32779;52.264;6.154;2023-06-26T15:00:23;2.33;;;0.80;;
47021;SDS011;32779;52.264;6.154;2023-06-26T15:02:49;5.05;;;0.70;;
47021;SDS011;32779;52.264;6.154;2023-06-26T15:05:18;4.63;;;0.93;;
47021;SDS011;32779;52.264;6.154;2023-06-26T15:07:47;2.88;;;1.10;;
47021;SDS011;32779;52.264;6.154;2023-06-26T15:10:12;2.95;;;0.70;;